Time;durP1;ratioP1;P1;durP2;ratioP2;P2;SDS_P1;SDS_P2;PMS_P1;PMS_P2;Temp;Humidity;BMP_temperature;BMP_pressure;BME280_temperature;BME280_humidity;BME280_pressure;Samples;Min_cycle;Max_cycle;Signal;HPM_P1;HPM_P2
2022/04/11 00:02:07;;;;;;;;;88.40;80.20;25.30;99.90;;;;;;5056280;28;8871;-69
2022/04/11 00:04:34;;;;;;;;;92.60;83.40;25.40;99.90;;;;;;5052606;28;9426;-68
2022/04/11 00:07:01;;;;;;;;;77.80;72.00;25.40;99.90;;;;;;5037210;28;8773;-69
2022/04/11 00:09:28;;;;;;;;;85.40;73.00;25.40;99.90;;;;;;5018620;28;8818;-68
2022/04/11 00:11:56;;;;;;;;;65.60;52.60;25.40;99.90;;;;;;5036260;28;8745;-69
2022/04/11 00:14:24;;;;;;;;;79.60;70.80;25.50;99.90;;;;;;5036042;28;8765;-68
2022/04/11 00:16:50;;;;;;;;;78.40;67.60;25.40;99.90;;;;;;5036074;28;8745;-69
2022/04/11 00:19:17;;;;;;;;;77.00;67.00;25.50;99.90;;;;;;5020014;28;8860;-68
2022/04/11 00:21:44;;;;;;;;;81.00;70.40;25.40;99.90;;;;;;5056503;28;8775;-69
2022/04/11 00:24:10;;;;;;;;;82.80;75.80;25.50;99.90;;;;;;5038932;28;8860;-69
2022/04/11 00:26:37;;;;;;;;;76.40;65.40;25.60;99.90;;;;;;5055969;28;8793;-70
2022/04/11 00:29:04;;;;;;;;;80.80;69.80;25.50;99.90;;;;;;5056087;28;8782;-69
2022/04/11 00:31:31;;;;;;;;;80.80;69.60;25.60;99.90;;;;;;5037897;28;8732;-69
2022/04/11 00:33:57;;;;;;;;;80.40;70.60;25.60;99.90;;;;;;5038828;28;8790;-69
2022/04/11 00:36:24;;;;;;;;;80.60;71.00;25.70;99.90;;;;;;5019715;28;8874;-69
2022/04/11 00:38:50;;;;;;;;;82.40;76.00;25.70;99.90;;;;;;5035717;28;9514;-69
2022/04/11 00:41:17;;;;;;;;;83.60;76.00;25.70;99.90;;;;;;5035928;28;8767;-68
2022/04/11 00:43:44;;;;;;;;;82.20;73.80;25.70;99.90;;;;;;5036158;28;8737;-69
2022/04/11 00:46:10;;;;;;;;;85.20;75.20;25.80;99.90;;;;;;5052854;28;8753;-69
2022/04/11 00:48:37;;;;;;;;;83.40;76.60;25.80;99.90;;;;;;5040027;28;9160;-69
2022/04/11 00:51:10;;;;;;;;;88.60;80.20;25.80;99.90;;;;;;5055486;28;8847;-69
2022/04/11 00:53:42;;;;;;;;;86.40;79.80;25.90;99.90;;;;;;5042003;28;8790;-69
2022/04/11 00:56:13;;;;;;;;;83.60;77.40;25.90;99.90;;;;;;5025117;28;9423;-69
2022/04/11 00:58:40;;;;;;;;;95.20;77.20;26.00;99.90;;;;;;5041611;28;8798;-69
2022/04/11 01:01:07;;;;;;;;;82.80;72.80;26.00;99.90;;;;;;5060065;28;8748;-69
2022/04/11 01:03:34;;;;;;;;;79.20;69.80;26.00;99.90;;;;;;5059161;28;8798;-68
2022/04/11 01:06:01;;;;;;;;;79.60;72.60;26.00;99.90;;;;;;5044563;28;8766;-69
2022/04/11 01:08:27;;;;;;;;;87.00;77.80;26.10;99.90;;;;;;5021645;28;9015;-68
2022/04/11 01:10:54;;;;;;;;;93.60;80.00;26.00;99.90;;;;;;5021978;28;8746;-69
2022/04/11 01:13:21;;;;;;;;;80.20;76.20;26.10;99.90;;;;;;5021769;28;8742;-68
2022/04/11 01:15:59;;;;;;;;;84.40;74.20;26.10;99.90;;;;;;5021675;28;8847;-69
2022/04/11 01:18:26;;;;;;;;;84.00;77.80;26.00;99.90;;;;;;5038645;28;8739;-69
2022/04/11 01:20:53;;;;;;;;;82.60;75.20;26.10;99.90;;;;;;5052821;28;8757;-69
2022/04/11 01:23:20;;;;;;;;;85.40;73.80;26.20;99.90;;;;;;5058839;28;8736;-68
2022/04/11 01:25:51;;;;;;;;;84.40;76.60;26.20;99.90;;;;;;5058926;28;8779;-69
2022/04/11 01:28:18;;;;;;;;;82.00;73.40;26.30;99.90;;;;;;5059609;28;8782;-68
2022/04/11 01:30:45;;;;;;;;;90.20;79.40;26.30;99.90;;;;;;5059173;28;8720;-69
2022/04/11 01:33:29;;;;;;;;;86.80;77.80;26.30;99.90;;;;;;5058928;28;8759;-68
2022/04/11 01:35:55;;;;;;;;;84.40;76.40;26.40;99.90;;;;;;5060287;28;8763;-69
2022/04/11 01:38:22;;;;;;;;;83.00;75.40;26.40;99.90;;;;;;5038671;28;8738;-69
2022/04/11 01:40:55;;;;;;;;;83.20;75.00;26.40;99.90;;;;;;5020946;28;8837;-69
2022/04/11 01:43:23;;;;;;;;;86.80;78.40;26.50;99.90;;;;;;5039091;28;8758;-69
2022/04/11 01:45:49;;;;;;;;;80.40;70.60;26.50;99.90;;;;;;5020522;28;8723;-69
2022/04/11 01:48:16;;;;;;;;;82.20;75.60;26.60;99.90;;;;;;5054008;28;8746;-69
2022/04/11 01:50:43;;;;;;;;;86.00;74.80;26.60;99.90;;;;;;5050664;28;8837;-69
2022/04/11 01:53:12;;;;;;;;;84.60;79.00;26.70;99.90;;;;;;5058634;28;8883;-69
2022/04/11 01:55:38;;;;;;;;;81.40;73.60;26.70;99.90;;;;;;5040514;28;8745;-69
2022/04/11 01:58:06;;;;;;;;;82.80;78.20;26.60;99.90;;;;;;5040564;28;8764;-69
2022/04/11 02:00:34;;;;;;;;;86.00;79.60;26.60;99.90;;;;;;5057845;28;8739;-69
2022/04/11 02:03:01;;;;;;;;;81.40;70.80;26.70;99.90;;;;;;5073425;28;8736;-69
2022/04/11 02:05:28;;;;;;;;;84.20;74.60;26.80;99.90;;;;;;5046981;28;8754;-69
2022/04/11 02:07:55;;;;;;;;;87.40;80.20;26.80;99.90;;;;;;5038000;28;8750;-69
2022/04/11 02:10:22;;;;;;;;;88.20;80.20;26.80;99.90;;;;;;5038420;28;8707;-69
2022/04/11 02:12:49;;;;;;;;;90.20;79.60;26.90;99.90;;;;;;5038060;28;8719;-69
2022/04/11 02:15:16;;;;;;;;;83.00;71.80;26.90;99.90;;;;;;5038058;28;8738;-69
2022/04/11 02:17:44;;;;;;;;;83.00;74.00;27.00;99.90;;;;;;5037852;28;8813;-69
2022/04/11 02:20:13;;;;;;;;;79.20;71.60;27.10;99.90;;;;;;5045395;28;8745;-69
2022/04/11 02:22:46;;;;;;;;;79.40;68.40;27.10;99.90;;;;;;5039751;28;8737;-70
2022/04/11 02:25:13;;;;;;;;;78.80;66.60;27.10;99.90;;;;;;5040341;28;8725;-69
2022/04/11 02:27:40;;;;;;;;;82.40;71.00;27.20;99.90;;;;;;5056251;28;8740;-69
2022/04/11 02:30:07;;;;;;;;;80.60;69.20;27.20;99.90;;;;;;5057790;28;8768;-69
2022/04/11 02:32:34;;;;;;;;;80.80;71.00;27.10;99.90;;;;;;5072834;28;8741;-69
2022/04/11 02:35:00;;;;;;;;;81.80;71.60;27.20;99.90;;;;;;5051221;28;8762;-69
2022/04/11 02:37:27;;;;;;;;;77.60;69.40;27.20;99.90;;;;;;5037151;28;8854;-69
2022/04/11 02:39:53;;;;;;;;;80.40;72.40;27.30;99.90;;;;;;5038281;28;8746;-69
2022/04/11 02:42:22;;;;;;;;;76.80;68.20;27.30;99.90;;;;;;5037198;28;8727;-68
2022/04/11 02:44:49;;;;;;;;;75.00;62.20;27.40;99.90;;;;;;5052460;28;10087;-69
2022/04/11 02:47:15;;;;;;;;;80.80;72.00;27.40;99.90;;;;;;5037377;28;8730;-69
2022/04/11 02:49:42;;;;;;;;;78.80;72.40;27.50;99.90;;;;;;5041165;28;8748;-69
2022/04/11 02:52:10;;;;;;;;;78.20;67.20;27.50;99.90;;;;;;5057685;28;8839;-69
2022/04/11 02:54:37;;;;;;;;;80.80;70.80;27.50;99.90;;;;;;5071948;28;8756;-68
2022/04/11 02:57:04;;;;;;;;;77.40;66.00;27.60;99.90;;;;;;5057205;28;8784;-69
2022/04/11 02:59:32;;;;;;;;;69.80;58.20;27.60;99.90;;;;;;5055357;28;8749;-68
2022/04/11 03:01:59;;;;;;;;;74.20;62.60;27.70;99.90;;;;;;5057124;28;8740;-68
2022/04/11 03:04:28;;;;;;;;;74.60;61.80;27.80;99.90;;;;;;5037184;28;9448;-68
2022/04/11 03:06:55;;;;;;;;;72.00;57.40;27.80;99.90;;;;;;5037587;28;8751;-67
2022/04/11 03:09:22;;;;;;;;;71.40;58.80;27.90;99.90;;;;;;5036423;28;8762;-68
2022/04/11 03:11:49;;;;;;;;;74.40;61.00;27.90;99.90;;;;;;5037173;28;8780;-69
2022/04/11 03:14:15;;;;;;;;;69.40;55.40;27.90;99.90;;;;;;5036821;28;8754;-69
2022/04/11 03:16:42;;;;;;;;;75.60;60.00;27.90;99.90;;;;;;5036645;28;8730;-68
2022/04/11 03:19:09;;;;;;;;;75.80;63.20;27.90;99.90;;;;;;5037238;28;8764;-68
2022/04/11 03:21:36;;;;;;;;;74.00;60.40;27.90;99.90;;;;;;5054796;28;9385;-68
2022/04/11 03:24:03;;;;;;;;;73.60;58.80;28.00;99.90;;;;;;5038771;28;9524;-68
2022/04/11 03:26:29;;;;;;;;;76.00;59.40;28.10;99.90;;;;;;5055092;28;8973;-68
2022/04/11 03:28:56;;;;;;;;;72.00;54.20;28.20;99.90;;;;;;5056776;28;9447;-69
2022/04/11 03:31:23;;;;;;;;;72.40;59.60;28.20;99.90;;;;;;5057068;28;8720;-68
2022/04/11 03:33:49;;;;;;;;;77.20;62.80;28.30;99.90;;;;;;5055460;28;8784;-69
2022/04/11 03:36:16;;;;;;;;;68.80;53.80;28.30;99.90;;;;;;5043412;28;8773;-69
2022/04/11 03:38:43;;;;;;;;;70.00;55.60;28.20;99.90;;;;;;5020268;28;8750;-68
2022/04/11 03:41:09;;;;;;;;;73.80;59.20;28.30;99.90;;;;;;5036448;28;8844;-69
2022/04/11 03:43:36;;;;;;;;;68.20;53.80;28.30;99.90;;;;;;5036682;28;8726;-68
2022/04/11 03:46:03;;;;;;;;;71.80;58.20;28.30;99.90;;;;;;5019868;28;8723;-69
2022/04/11 03:48:29;;;;;;;;;71.20;57.20;28.40;99.90;;;;;;5036375;28;8856;-69
2022/04/11 03:50:56;;;;;;;;;72.80;60.00;28.50;99.90;;;;;;5050748;28;8732;-68
2022/04/11 03:53:23;;;;;;;;;72.80;58.40;28.50;99.90;;;;;;5056241;28;8762;-69
2022/04/11 03:55:49;;;;;;;;;69.80;54.60;28.50;99.90;;;;;;5057118;28;8745;-68
2022/04/11 03:58:16;;;;;;;;;71.60;56.60;28.50;99.90;;;;;;5057492;28;8743;-68
2022/04/11 04:00:42;;;;;;;;;69.20;57.20;28.50;99.90;;;;;;5056931;28;8813;-68
2022/04/11 04:03:10;;;;;;;;;66.00;51.20;28.70;99.90;;;;;;5048376;28;8739;-68
2022/04/11 04:05:44;;;;;;;;;72.40;62.00;28.70;99.90;;;;;;5044777;28;8829;-68
2022/04/11 04:08:11;;;;;;;;;68.00;54.20;28.60;99.90;;;;;;5037080;28;8765;-68
2022/04/11 04:10:37;;;;;;;;;68.00;55.60;28.80;99.90;;;;;;5052074;28;8745;-68
2022/04/11 04:13:04;;;;;;;;;70.60;56.60;29.00;99.90;;;;;;5037528;28;8761;-68
2022/04/11 04:15:31;;;;;;;;;72.80;58.80;29.10;99.90;;;;;;5051647;28;9222;-69
2022/04/11 04:18:01;;;;;;;;;72.40;58.40;29.00;99.90;;;;;;5036670;28;8733;-69
2022/04/11 04:20:28;;;;;;;;;67.60;54.60;29.00;99.90;;;;;;5046616;28;8758;-69
2022/04/11 04:22:55;;;;;;;;;72.00;56.60;28.90;99.90;;;;;;5060434;28;8886;-68
2022/04/11 04:25:24;;;;;;;;;68.60;53.40;29.00;99.90;;;;;;5060604;28;8739;-68
2022/04/11 04:27:51;;;;;;;;;73.00;58.40;29.10;99.90;;;;;;5060714;28;8837;-69
2022/04/11 04:30:18;;;;;;;;;69.40;54.20;29.20;99.90;;;;;;5060078;28;8818;-67
2022/04/11 04:32:46;;;;;;;;;64.60;52.20;29.10;99.90;;;;;;5060216;28;8791;-68
2022/04/11 04:35:12;;;;;;;;;63.60;50.60;29.20;99.90;;;;;;5052062;28;8842;-68
2022/04/11 04:37:39;;;;;;;;;68.00;54.40;29.40;99.90;;;;;;5040108;28;8825;-68
2022/04/11 04:40:06;;;;;;;;;67.60;54.20;29.30;99.90;;;;;;5022728;28;8756;-68
2022/04/11 04:42:33;;;;;;;;;66.00;51.00;29.20;99.90;;;;;;5039552;28;8804;-69
2022/04/11 04:45:00;;;;;;;;;67.40;53.80;29.20;99.90;;;;;;5039928;28;8729;-68
2022/04/11 04:47:26;;;;;;;;;65.40;53.00;29.40;99.90;;;;;;5022112;28;8736;-68
2022/04/11 04:49:53;;;;;;;;;66.60;52.60;29.40;99.90;;;;;;5027571;28;8739;-68
2022/04/11 04:52:20;;;;;;;;;64.00;50.40;29.70;99.90;;;;;;5060148;28;8751;-67
2022/04/11 04:54:46;;;;;;;;;65.40;52.80;29.60;99.90;;;;;;5059725;28;8754;-68
2022/04/11 04:57:13;;;;;;;;;62.60;48.60;29.70;99.90;;;;;;5060189;28;8853;-68
2022/04/11 04:59:40;;;;;;;;;67.80;52.80;29.70;99.90;;;;;;5059873;28;8858;-68
2022/04/11 05:02:06;;;;;;;;;65.80;52.00;29.60;99.90;;;;;;5042252;28;8774;-67
2022/04/11 05:04:34;;;;;;;;;64.40;47.80;29.60;99.90;;;;;;5056879;28;8767;-68
2022/04/11 05:07:00;;;;;;;;;63.80;51.60;29.90;99.90;;;;;;5056164;28;8757;-69
2022/04/11 05:09:27;;;;;;;;;63.20;50.40;29.80;99.90;;;;;;5039241;28;8870;-68
2022/04/11 05:11:54;;;;;;;;;58.20;47.60;30.00;99.90;;;;;;5039749;28;8777;-68
2022/04/11 05:14:20;;;;;;;;;61.00;48.80;30.00;99.90;;;;;;5054526;28;8777;-67
2022/04/11 05:16:47;;;;;;;;;64.20;49.00;29.90;99.90;;;;;;5022448;28;8852;-68
2022/04/11 05:19:14;;;;;;;;;64.80;51.60;30.00;99.90;;;;;;5040672;28;8863;-68
2022/04/11 05:21:40;;;;;;;;;60.60;49.00;30.20;99.90;;;;;;5039818;28;8768;-68
2022/04/11 05:24:07;;;;;;;;;62.20;50.00;30.20;99.90;;;;;;5039839;28;8792;-68
2022/04/11 05:26:34;;;;;;;;;64.00;52.00;30.40;99.90;;;;;;5039526;28;8741;-68
2022/04/11 05:29:03;;;;;;;;;57.80;47.00;30.60;99.90;;;;;;5055262;28;8884;-68
2022/04/11 05:31:30;;;;;;;;;65.20;50.00;30.30;99.90;;;;;;5005824;28;8737;-68
2022/04/11 05:33:57;;;;;;;;;64.40;50.80;30.30;99.90;;;;;;5039274;28;8772;-68
2022/04/11 05:36:24;;;;;;;;;63.40;51.00;30.60;99.90;;;;;;5057276;28;8750;-67
2022/04/11 05:38:50;;;;;;;;;63.60;51.80;30.50;99.90;;;;;;5059368;28;8766;-68
2022/04/11 05:41:17;;;;;;;;;59.80;48.20;30.60;99.90;;;;;;5059366;28;8759;-68
2022/04/11 05:43:44;;;;;;;;;61.60;49.80;30.70;99.90;;;;;;5074067;28;8759;-68
2022/04/11 05:46:11;;;;;;;;;63.20;50.20;30.70;99.90;;;;;;5059146;28;8762;-68
2022/04/11 05:48:38;;;;;;;;;62.20;47.80;30.80;99.90;;;;;;5058160;28;8765;-68
2022/04/11 05:51:05;;;;;;;;;59.00;47.60;30.80;99.90;;;;;;5043092;28;8776;-68
2022/04/11 05:53:31;;;;;;;;;63.80;50.20;30.80;99.90;;;;;;5037803;28;8765;-68
2022/04/11 05:55:58;;;;;;;;;65.80;51.60;30.80;99.90;;;;;;5014837;28;8756;-68
2022/04/11 05:58:25;;;;;;;;;62.00;48.80;30.90;99.90;;;;;;5048625;28;9437;-66
2022/04/11 06:00:51;;;;;;;;;63.20;48.80;30.80;99.90;;;;;;5038922;28;8738;-69
2022/04/11 06:03:18;;;;;;;;;59.40;47.00;30.80;99.90;;;;;;5038334;28;8730;-67
2022/04/11 06:05:45;;;;;;;;;56.20;46.60;31.10;99.90;;;;;;5050630;28;8766;-68
2022/04/11 06:08:11;;;;;;;;;60.00;47.00;30.90;99.90;;;;;;5058223;28;8816;-69
2022/04/11 06:10:38;;;;;;;;;59.80;48.00;30.90;99.90;;;;;;5039839;28;9392;-68
2022/04/11 06:13:05;;;;;;;;;61.80;47.40;30.90;99.90;;;;;;5074301;28;8739;-69
2022/04/11 06:15:32;;;;;;;;;59.80;48.60;30.90;99.90;;;;;;5057493;28;9216;-69
2022/04/11 06:17:59;;;;;;;;;58.80;47.40;31.00;99.90;;;;;;5040401;28;8742;-68
2022/04/11 06:20:27;;;;;;;;;58.60;47.00;31.20;99.90;;;;;;5047822;28;8761;-69
2022/04/11 06:22:53;;;;;;;;;56.40;46.20;31.30;99.90;;;;;;5038096;28;8764;-68
2022/04/11 06:25:20;;;;;;;;;60.80;49.60;31.40;99.90;;;;;;5038246;28;8745;-68
2022/04/11 06:27:47;;;;;;;;;59.00;48.00;31.20;99.90;;;;;;5037918;28;8781;-68
2022/04/11 06:30:13;;;;;;;;;62.80;50.40;31.10;99.90;;;;;;5037980;28;8721;-68
2022/04/11 06:32:40;;;;;;;;;63.40;49.40;31.40;99.90;;;;;;5037680;28;8855;-68
2022/04/11 06:35:07;;;;;;;;;61.20;48.40;31.10;99.90;;;;;;5011043;28;8763;-68
2022/04/11 06:37:34;;;;;;;;;52.80;44.60;30.90;99.90;;;;;;5023311;28;8703;-68
2022/04/11 06:40:02;;;;;;;;;57.20;45.60;31.10;99.90;;;;;;5057922;28;8765;-68
2022/04/11 06:42:29;;;;;;;;;59.20;47.60;31.10;99.90;;;;;;5072395;28;8775;-69
2022/04/11 06:44:56;;;;;;;;;60.00;48.40;31.30;99.90;;;;;;5022363;28;8774;-68
2022/04/11 06:47:23;;;;;;;;;57.20;45.80;31.40;99.90;;;;;;5057332;28;8770;-68
2022/04/11 06:49:56;;;;;;;;;60.80;48.20;31.80;99.90;;;;;;5052109;28;8769;-69
2022/04/11 06:52:23;;;;;;;;;60.40;48.00;31.50;99.90;;;;;;5037833;28;8807;-68
2022/04/11 06:54:50;;;;;;;;;60.00;47.60;31.40;99.90;;;;;;5037560;28;8856;-68
2022/04/11 06:57:16;;;;;;;;;57.50;46.25;31.50;99.90;;;;;;5036852;28;8780;-68
2022/04/11 06:59:43;;;;;;;;;61.00;49.40;31.30;99.90;;;;;;5037049;28;8761;-68
2022/04/11 07:02:09;;;;;;;;;59.60;45.80;31.30;99.90;;;;;;5025491;28;8761;-68
2022/04/11 07:04:36;;;;;;;;;58.20;47.00;31.10;99.90;;;;;;5039385;28;8798;-68
2022/04/11 07:07:03;;;;;;;;;55.40;45.80;31.10;99.90;;;;;;5057300;28;8849;-68
2022/04/11 07:09:31;;;;;;;;;57.20;47.40;31.50;99.90;;;;;;5056747;28;8751;-68
2022/04/11 07:11:58;;;;;;;;;59.25;46.75;31.80;99.20;;;;;;5057026;28;8785;-68
2022/04/11 07:14:25;;;;;;;;;55.40;45.00;31.60;99.30;;;;;;5056311;28;8766;-68
2022/04/11 07:16:52;;;;;;;;;57.00;46.75;31.90;99.50;;;;;;5056541;28;8755;-68
2022/04/11 07:19:20;;;;;;;;;58.60;47.60;31.90;99.30;;;;;;5056158;28;8755;-67
2022/04/11 07:21:47;;;;;;;;;53.00;42.40;32.40;98.20;;;;;;5019312;28;8881;-68
2022/04/11 07:24:14;;;;;;;;;55.25;45.25;32.30;97.20;;;;;;5036094;28;8789;-69
2022/04/11 07:26:41;;;;;;;;;61.20;47.60;32.10;98.10;;;;;;5019071;28;8752;-69
2022/04/11 07:29:08;;;;;;;;;56.75;44.50;32.40;96.20;;;;;;5019226;28;8819;-68
2022/04/11 07:31:34;;;;;;;;;56.80;45.40;32.20;95.50;;;;;;5035624;28;8722;-68
2022/04/11 07:34:01;;;;;;;;;60.40;47.60;32.20;96.70;;;;;;5037200;28;8789;-69
2022/04/11 07:36:28;;;;;;;;;59.50;47.25;31.90;96.00;;;;;;5053969;28;8783;-68
2022/04/11 07:38:56;;;;;;;;;54.80;44.40;31.70;98.20;;;;;;5056418;28;9477;-68
2022/04/11 07:41:26;;;;;;;;;55.75;45.25;31.90;97.90;;;;;;5038316;28;8762;-68
2022/04/11 07:43:54;;;;;;;;;55.00;43.75;32.10;96.00;;;;;;5056340;28;8771;-69
2022/04/11 07:46:21;;;;;;;;;55.00;45.40;32.30;93.70;;;;;;5038753;28;8727;-67
2022/04/11 07:48:47;;;;;;;;;57.00;44.00;32.20;94.40;;;;;;5056189;28;8747;-68
2022/04/11 07:51:14;;;;;;;;;60.00;47.50;32.30;94.70;;;;;;5022154;28;8753;-68
2022/04/11 07:53:41;;;;;;;;;56.75;46.00;32.00;95.40;;;;;;5002259;28;8749;-68
2022/04/11 07:56:07;;;;;;;;;59.50;47.00;31.70;96.30;;;;;;5037958;28;8813;-69
2022/04/11 07:58:34;;;;;;;;;57.25;45.50;31.80;96.80;;;;;;5022224;28;8750;-69
2022/04/11 08:01:01;;;;;;;;;56.50;45.50;31.80;97.50;;;;;;5040809;28;8712;-68
2022/04/11 08:03:28;;;;;;;;;55.25;44.50;31.70;97.80;;;;;;5022410;28;8891;-68
2022/04/11 08:05:54;;;;;;;;;53.50;43.50;31.80;96.80;;;;;;5053961;28;8724;-69
2022/04/11 08:08:21;;;;;;;;;55.00;44.75;32.30;96.60;;;;;;5074943;28;8761;-68
2022/04/11 08:10:48;;;;;;;;;52.50;43.25;32.20;96.20;;;;;;5060099;28;8759;-69
2022/04/11 08:13:14;;;;;;;;;56.20;45.00;32.10;97.40;;;;;;5076074;28;8712;-69
2022/04/11 08:15:41;;;;;;;;;57.80;45.60;32.00;97.00;;;;;;5060014;28;8723;-69
2022/04/11 08:18:08;;;;;;;;;54.75;45.75;32.10;95.20;;;;;;5060097;28;8758;-69
2022/04/11 08:20:34;;;;;;;;;57.75;45.00;32.10;95.90;;;;;;5049114;28;8729;-69
2022/04/11 08:23:01;;;;;;;;;57.25;45.75;31.90;95.90;;;;;;5022283;28;9439;-69
2022/04/11 08:25:28;;;;;;;;;56.20;45.40;31.80;96.80;;;;;;5039678;28;8788;-68
2022/04/11 08:27:54;;;;;;;;;58.25;45.25;32.10;96.50;;;;;;5040242;28;8714;-68
2022/04/11 08:30:21;;;;;;;;;58.25;46.75;32.00;96.80;;;;;;5039869;28;8748;-68
2022/04/11 08:32:49;;;;;;;;;52.60;43.00;32.20;96.70;;;;;;5039577;28;8783;-69
2022/04/11 08:35:18;;;;;;;;;51.75;43.50;32.30;96.10;;;;;;5048187;28;8743;-68
2022/04/11 08:37:45;;;;;;;;;54.75;44.50;32.20;94.60;;;;;;5042003;28;8902;-69
2022/04/11 08:40:12;;;;;;;;;55.60;45.60;32.20;95.00;;;;;;5059926;28;8825;-69
2022/04/11 08:42:40;;;;;;;;;55.50;45.00;32.10;94.30;;;;;;5041935;28;8881;-69
2022/04/11 08:45:07;;;;;;;;;51.50;42.50;32.00;95.40;;;;;;5059467;28;8798;-68
2022/04/11 08:47:34;;;;;;;;;53.50;43.75;31.90;94.80;;;;;;5059121;28;8832;-68
2022/04/11 08:50:02;;;;;;;;;54.80;44.80;32.10;95.00;;;;;;5053141;28;8753;-68
2022/04/11 08:52:29;;;;;;;;;62.40;48.80;32.30;93.80;;;;;;5039154;28;8783;-68
2022/04/11 08:54:56;;;;;;;;;53.75;44.25;32.30;94.30;;;;;;5022548;28;8756;-68
2022/04/11 08:57:23;;;;;;;;;52.60;44.20;32.40;95.10;;;;;;5021792;28;9394;-68
2022/04/11 08:59:50;;;;;;;;;57.00;46.20;32.40;95.30;;;;;;5039146;28;8843;-69
2022/04/11 09:02:17;;;;;;;;;59.75;45.50;32.40;95.20;;;;;;5021957;28;8775;-67
2022/04/11 09:04:51;;;;;;;;;56.75;45.25;32.40;94.70;;;;;;5042970;28;8767;-68
2022/04/11 09:07:17;;;;;;;;;56.80;45.00;32.20;95.60;;;;;;5058654;28;8758;-68
2022/04/11 09:09:44;;;;;;;;;53.00;42.50;32.20;96.30;;;;;;5059139;28;8804;-68
2022/04/11 09:12:15;;;;;;;;;51.60;41.60;32.10;96.50;;;;;;5074434;28;8909;-69
2022/04/11 09:14:42;;;;;;;;;57.00;44.50;32.00;96.30;;;;;;5041749;28;8758;-68
2022/04/11 09:17:09;;;;;;;;;56.50;44.75;32.00;96.20;;;;;;5058146;28;8767;-69
2022/04/11 09:19:36;;;;;;;;;55.00;44.25;32.00;95.90;;;;;;5055772;28;8800;-69
2022/04/11 09:22:04;;;;;;;;;54.75;45.50;31.90;96.10;;;;;;5039550;28;8741;-69
2022/04/11 09:24:31;;;;;;;;;57.00;44.50;31.90;95.50;;;;;;5038722;28;8784;-68
2022/04/11 09:26:58;;;;;;;;;58.75;46.50;32.00;95.20;;;;;;5038679;28;8768;-68
2022/04/11 09:29:26;;;;;;;;;55.75;44.25;32.10;96.40;;;;;;5038896;28;8859;-68
2022/04/11 09:31:53;;;;;;;;;49.00;42.00;32.20;95.90;;;;;;5038727;28;8749;-69
2022/04/11 09:34:21;;;;;;;;;54.50;42.50;32.40;94.90;;;;;;5039503;28;8862;-67
2022/04/11 09:36:58;;;;;;;;;54.75;44.50;32.30;96.00;;;;;;5041334;28;8750;-69
2022/04/11 09:39:32;;;;;;;;;55.50;44.00;32.20;96.00;;;;;;5074029;28;8805;-68
2022/04/11 09:41:59;;;;;;;;;57.75;46.25;32.10;96.80;;;;;;5058764;28;8820;-69
2022/04/11 09:44:26;;;;;;;;;56.25;45.25;32.00;96.00;;;;;;5058254;28;8802;-69
2022/04/11 09:46:55;;;;;;;;;57.50;45.75;32.00;95.80;;;;;;5058754;28;8777;-68
2022/04/11 09:49:22;;;;;;;;;54.25;44.00;31.90;96.20;;;;;;5057847;28;8739;-68
2022/04/11 09:52:08;;;;;;;;;55.50;46.25;31.80;96.50;;;;;;5021212;28;8752;-68
2022/04/11 09:54:45;;;;;;;;;59.50;47.25;31.70;97.00;;;;;;5020707;28;10206;-69
2022/04/11 09:57:13;;;;;;;;;56.00;44.75;31.60;97.20;;;;;;5038213;28;8765;-69
2022/04/11 09:59:40;;;;;;;;;59.20;46.20;31.60;97.80;;;;;;5020662;28;8769;-69
2022/04/11 10:02:07;;;;;;;;;55.50;43.25;31.50;98.50;;;;;;5037977;28;9127;-69
2022/04/11 10:04:34;;;;;;;;;51.60;43.40;31.50;98.30;;;;;;5040384;28;8816;-68
2022/04/11 10:07:02;;;;;;;;;55.00;45.80;31.50;98.40;;;;;;5025111;28;8742;-69
2022/04/11 10:09:28;;;;;;;;;57.20;46.00;31.50;98.40;;;;;;5057944;28;8782;-68
2022/04/11 10:11:55;;;;;;;;;55.25;45.00;31.50;97.50;;;;;;5058063;28;8852;-69
2022/04/11 10:14:28;;;;;;;;;63.40;50.40;31.50;98.20;;;;;;5057689;28;8762;-68
2022/04/11 10:17:02;;;;;;;;;64.80;50.60;31.40;98.10;;;;;;5057940;28;8751;-69
2022/04/11 10:19:33;;;;;;;;;58.40;47.20;31.40;98.20;;;;;;5055597;28;8753;-68
2022/04/11 10:22:13;;;;;;;;;63.60;49.40;31.40;98.10;;;;;;5038242;28;8741;-69
2022/04/11 10:24:54;;;;;;;;;58.80;46.00;31.40;98.00;;;;;;5019897;28;8787;-68
2022/04/11 10:27:25;;;;;;;;;60.20;48.00;31.30;97.90;;;;;;5037728;28;9537;-68
2022/04/11 10:29:53;;;;;;;;;62.00;48.40;31.30;97.70;;;;;;5037515;28;8760;-69
2022/04/11 10:32:21;;;;;;;;;56.80;46.80;31.40;97.70;;;;;;5037149;28;8749;-68
2022/04/11 10:34:56;;;;;;;;;57.60;46.80;31.30;97.50;;;;;;5024417;28;8766;-69
2022/04/11 10:37:27;;;;;;;;;58.80;47.40;31.30;98.00;;;;;;5057793;28;8739;-68
2022/04/11 10:40:14;;;;;;;;;63.80;48.80;31.20;98.60;;;;;;5039736;28;8766;-69
2022/04/11 10:42:44;;;;;;;;;61.60;48.80;31.10;98.90;;;;;;5050158;28;8766;-68
2022/04/11 10:45:29;;;;;;;;;65.80;51.80;31.00;98.70;;;;;;5039334;28;8872;-69
2022/04/11 10:47:55;;;;;;;;;64.00;52.20;31.00;98.50;;;;;;5040030;28;8785;-70
2022/04/11 10:50:23;;;;;;;;;64.80;51.60;31.10;98.40;;;;;;5047858;28;9374;-69
2022/04/11 10:52:55;;;;;;;;;68.20;52.80;31.00;98.80;;;;;;5019431;28;8779;-69
2022/04/11 10:55:28;;;;;;;;;65.80;51.40;30.90;98.90;;;;;;5020464;28;8741;-69
2022/04/11 10:57:55;;;;;;;;;64.20;51.40;30.90;98.80;;;;;;5037806;28;8818;-69
2022/04/11 11:00:23;;;;;;;;;68.80;51.60;30.90;98.40;;;;;;5052058;28;8759;-68
2022/04/11 11:05:39;;;;;;;;;60.20;47.60;30.80;98.80;;;;;;5045497;28;8744;-68
2022/04/11 11:08:12;;;;;;;;;64.80;52.00;30.70;99.90;;;;;;5057291;28;8741;-69
2022/04/11 11:10:57;;;;;;;;;67.80;54.00;30.60;99.90;;;;;;5057380;28;8767;-69
2022/04/11 11:13:36;;;;;;;;;63.60;51.20;30.50;99.90;;;;;;5057552;28;9495;-69
2022/04/11 11:16:12;;;;;;;;;66.80;50.40;30.60;99.90;;;;;;5057726;28;9447;-69
2022/04/11 11:21:37;;;;;;;;;60.80;48.00;30.50;99.20;;;;;;5040746;28;8782;-69
2022/04/11 11:24:04;;;;;;;;;65.60;50.40;30.50;99.00;;;;;;5036815;28;8846;-69
2022/04/11 11:26:47;;;;;;;;;65.00;49.60;30.50;99.60;;;;;;5036670;28;8772;-68
2022/04/11 11:29:28;;;;;;;;;66.40;51.60;30.50;99.90;;;;;;5052352;28;8751;-69
2022/04/11 11:31:57;;;;;;;;;70.40;54.00;30.50;99.90;;;;;;5036629;28;8912;-69
2022/04/11 11:34:30;;;;;;;;;66.00;52.40;30.50;99.90;;;;;;5037842;28;8798;-68
2022/04/11 11:37:02;;;;;;;;;66.80;50.80;30.40;99.90;;;;;;5057339;28;8721;-69
2022/04/11 11:39:29;;;;;;;;;66.00;51.80;30.40;99.90;;;;;;5056692;28;8761;-69
2022/04/11 11:42:02;;;;;;;;;70.20;54.60;30.40;99.90;;;;;;5056251;28;8740;-69
2022/04/11 11:44:30;;;;;;;;;66.60;53.00;30.30;99.90;;;;;;5056243;28;8764;-69
2022/04/11 11:47:00;;;;;;;;;69.40;52.80;30.20;99.90;;;;;;5056494;28;8825;-69
2022/04/11 11:49:28;;;;;;;;;65.00;51.60;30.20;99.90;;;;;;5054752;28;8810;-68
2022/04/11 11:51:55;;;;;;;;;64.40;50.80;30.20;99.90;;;;;;5019689;28;8743;-69
2022/04/11 11:54:39;;;;;;;;;67.80;51.20;30.10;99.90;;;;;;5036435;28;8754;-68
2022/04/11 11:57:23;;;;;;;;;59.20;48.80;30.00;99.90;;;;;;5010719;28;9585;-69
2022/04/11 11:59:50;;;;;;;;;71.40;54.00;29.80;99.90;;;;;;5036256;28;9229;-69
2022/04/11 12:05:02;;;;;;;;;69.60;56.00;29.70;99.90;;;;;;5027778;28;9395;-69
2022/04/11 12:07:29;;;;;;;;;70.00;53.20;29.80;99.90;;;;;;5056287;28;8750;-69
2022/04/11 12:09:56;;;;;;;;;72.60;56.40;29.90;99.90;;;;;;5056599;28;8755;-69
2022/04/11 12:12:22;;;;;;;;;73.00;55.80;29.80;99.90;;;;;;5055918;28;8758;-68
2022/04/11 12:15:03;;;;;;;;;72.40;56.20;29.70;99.90;;;;;;5056262;28;8767;-69
2022/04/11 12:17:35;;;;;;;;;68.80;57.20;29.50;99.90;;;;;;5056037;28;8755;-69
2022/04/11 12:20:21;;;;;;;;;65.00;51.80;29.40;99.90;;;;;;5049926;28;8764;-69
2022/04/11 12:23:01;;;;;;;;;72.60;55.80;29.30;99.90;;;;;;5030680;28;8749;-68
2022/04/11 12:25:29;;;;;;;;;69.40;55.20;29.50;99.90;;;;;;5035671;28;8793;-68
2022/04/11 12:28:25;;;;;;;;;68.40;53.00;29.50;99.90;;;;;;5019452;28;8765;-69
2022/04/11 12:31:12;;;;;;;;;72.80;57.00;29.50;99.90;;;;;;5036167;28;8858;-69
2022/04/11 12:33:46;;;;;;;;;72.40;59.20;29.60;99.90;;;;;;5051139;28;9497;-69
2022/04/11 12:36:30;;;;;;;;;71.60;59.80;29.70;99.90;;;;;;5052009;28;8809;-69
2022/04/11 12:39:13;;;;;;;;;74.80;59.40;29.80;99.90;;;;;;5037997;28;8758;-69
2022/04/11 12:41:52;;;;;;;;;70.00;55.80;29.70;99.90;;;;;;5056102;28;8747;-68
2022/04/11 12:44:32;;;;;;;;;59.00;46.40;29.50;99.90;;;;;;5059508;28;9539;-67
2022/04/11 12:47:02;;;;;;;;;75.00;57.80;29.20;99.90;;;;;;5060191;28;8928;-69
2022/04/11 12:49:51;;;;;;;;;72.80;60.20;29.20;99.90;;;;;;5057339;28;8767;-68
2022/04/11 12:52:19;;;;;;;;;67.80;53.20;29.00;99.90;;;;;;5040653;28;8756;-67